Time;durP1;ratioP1;P1;durP2;ratioP2;P2;SDS_P1;SDS_P2;PMS_P1;PMS_P2;Temp;Humidity;BMP_temperature;BMP_pressure;BME280_temperature;BME280_humidity;BME280_pressure;Samples;Min_cycle;Max_cycle;Signal;HPM_P1;HPM_P2
2023/09/28 00:00:37;;;;;;;19.40;7.90;;;;;;;14.51;80.62;100729.77;109805;1272;22983;-61
2023/09/28 00:03:25;;;;;;;20.40;9.20;;;;;;;14.43;80.75;100733.77;109802;1276;22171;-61
2023/09/28 00:05:56;;;;;;;23.30;8.40;;;;;;;14.37;81.04;100729.00;109776;1284;22412;-61
2023/09/28 00:08:27;;;;;;;19.90;7.80;;;;;;;14.32;81.18;100730.88;109785;1277;22411;-63
2023/09/28 00:10:58;;;;;;;20.10;8.80;;;;;;;14.25;81.23;100730.87;109785;1277;23122;-61
2023/09/28 00:13:29;;;;;;;21.40;8.70;;;;;;;14.18;81.29;100732.02;109779;1277;22463;-62
2023/09/28 00:16:00;;;;;;;24.90;9.60;;;;;;;14.11;81.46;100732.18;109787;1277;22187;-61
2023/09/28 00:18:31;;;;;;;23.60;8.90;;;;;;;14.05;81.65;100735.79;109794;1277;22195;-61
2023/09/28 00:21:02;;;;;;;25.40;9.60;;;;;;;14.00;81.74;100733.02;109809;1284;22239;-61
2023/09/28 00:23:33;;;;;;;19.40;8.50;;;;;;;13.96;81.79;100729.70;109823;1276;22378;-62
2023/09/28 00:26:04;;;;;;;20.20;8.40;;;;;;;13.93;81.69;100727.70;109789;1283;22169;-61
2023/09/28 00:28:35;;;;;;;25.90;8.90;;;;;;;13.88;81.80;100729.89;109793;1276;22328;-61
2023/09/28 00:31:06;;;;;;;22.00;8.80;;;;;;;13.82;81.88;100727.32;109789;1277;22275;-60
2023/09/28 00:33:37;;;;;;;21.50;8.70;;;;;;;13.75;81.97;100728.51;109769;1277;22148;-62
2023/09/28 00:36:08;;;;;;;19.00;8.70;;;;;;;13.70;82.18;100727.66;109776;1276;22150;-61
2023/09/28 00:38:39;;;;;;;19.50;7.60;;;;;;;13.64;82.22;100726.11;109804;1277;22229;-62
2023/09/28 00:41:10;;;;;;;18.60;8.10;;;;;;;13.60;82.26;100719.95;109797;1277;22394;-61
2023/09/28 00:43:42;;;;;;;20.50;8.40;;;;;;;13.56;82.33;100724.34;109790;1277;22183;-60
2023/09/28 00:46:17;;;;;;;20.10;8.60;;;;;;;13.54;82.39;100719.83;109757;1277;22214;-62
2023/09/28 00:48:58;;;;;;;20.00;8.80;;;;;;;13.50;82.28;100721.30;109787;1276;22186;-60
2023/09/28 00:51:31;;;;;;;21.70;9.30;;;;;;;13.45;82.54;100721.85;109670;1276;22339;-62
2023/09/28 00:54:06;;;;;;;21.90;9.40;;;;;;;13.39;82.54;100721.23;109802;1277;22359;-61
2023/09/28 00:56:37;;;;;;;22.00;9.90;;;;;;;13.35;82.62;100721.98;109786;1280;23444;-61
2023/09/28 00:59:08;;;;;;;22.20;9.30;;;;;;;13.31;82.89;100716.33;109778;1284;23023;-61
2023/09/28 01:01:39;;;;;;;22.40;9.20;;;;;;;13.30;82.82;100713.66;109810;1277;22228;-61
2023/09/28 01:04:10;;;;;;;19.80;8.90;;;;;;;13.29;82.92;100717.10;109802;1280;22302;-61
2023/09/28 01:06:42;;;;;;;21.40;9.40;;;;;;;13.27;82.93;100718.24;109765;1284;22604;-62
2023/09/28 01:09:14;;;;;;;21.90;9.80;;;;;;;13.24;83.03;100714.02;109807;1277;22346;-61
2023/09/28 01:11:46;;;;;;;20.90;9.60;;;;;;;13.20;83.40;100718.59;109792;1277;22160;-61
2023/09/28 01:14:17;;;;;;;19.70;9.40;;;;;;;13.17;83.51;100720.58;109794;1277;23150;-61
2023/09/28 01:16:48;;;;;;;23.00;10.00;;;;;;;13.17;83.46;100722.35;109783;1280;22364;-62
2023/09/28 01:19:19;;;;;;;23.10;10.10;;;;;;;13.16;83.39;100724.80;109808;1277;22318;-61
2023/09/28 01:21:51;;;;;;;25.50;10.50;;;;;;;13.17;83.72;100720.38;109798;1276;22160;-59
2023/09/28 01:24:22;;;;;;;18.40;8.20;;;;;;;13.18;83.73;100720.20;109802;1277;23021;-60
2023/09/28 01:26:52;;;;;;;22.90;9.90;;;;;;;13.20;83.89;100717.12;109791;1284;22246;-61
2023/09/28 01:29:23;;;;;;;17.90;8.80;;;;;;;13.22;83.85;100719.34;109801;1284;22275;-61
2023/09/28 01:31:54;;;;;;;18.60;8.60;;;;;;;13.22;84.12;100712.45;109796;1284;22413;-61
2023/09/28 01:34:25;;;;;;;20.70;10.10;;;;;;;13.23;84.24;100717.45;109782;1283;22158;-61
2023/09/28 01:36:56;;;;;;;21.40;10.30;;;;;;;13.22;84.53;100715.31;109787;1284;22332;-62
2023/09/28 01:39:28;;;;;;;23.60;9.70;;;;;;;13.22;84.74;100713.63;109797;1283;22862;-60
2023/09/28 01:41:59;;;;;;;20.90;10.80;;;;;;;13.21;85.04;100712.85;109809;1277;22306;-64
2023/09/28 01:44:29;;;;;;;26.60;9.90;;;;;;;13.19;85.15;100712.77;109801;1280;22372;-60
2023/09/28 01:47:00;;;;;;;24.70;10.80;;;;;;;13.18;85.28;100708.27;109776;1277;22223;-61
2023/09/28 01:49:31;;;;;;;22.00;11.30;;;;;;;13.16;85.41;100708.48;109807;1277;22906;-61
2023/09/28 01:52:02;;;;;;;25.70;11.30;;;;;;;13.12;85.66;100708.78;109792;1277;22260;-62
2023/09/28 01:54:33;;;;;;;21.10;10.10;;;;;;;13.08;85.67;100710.55;109774;1283;23551;-61
2023/09/28 01:57:04;;;;;;;25.70;10.20;;;;;;;13.04;85.47;100707.52;109774;1284;22999;-60
2023/09/28 01:59:35;;;;;;;26.10;12.60;;;;;;;13.00;85.64;100704.27;109834;1277;22320;-61
2023/09/28 02:02:05;;;;;;;26.80;11.80;;;;;;;13.00;85.97;100702.13;109801;1276;22207;-62
2023/09/28 02:04:39;;;;;;;26.10;11.70;;;;;;;12.99;86.12;100700.85;109795;1277;22336;-61
2023/09/28 02:07:10;;;;;;;25.00;11.20;;;;;;;12.98;86.28;100703.89;109780;1277;22344;-61
2023/09/28 02:09:41;;;;;;;23.80;11.10;;;;;;;12.95;86.47;100705.58;109771;1277;22191;-61
2023/09/28 02:12:12;;;;;;;23.00;10.60;;;;;;;12.92;86.51;100705.13;109773;1277;22322;-60
2023/09/28 02:14:43;;;;;;;26.00;11.10;;;;;;;12.90;86.65;100709.88;109807;1284;23141;-61
2023/09/28 02:17:14;;;;;;;25.80;11.10;;;;;;;12.88;86.58;100704.03;109800;1283;23440;-61
2023/09/28 02:19:47;;;;;;;21.10;9.90;;;;;;;12.89;86.37;100701.55;109804;1284;22194;-61
2023/09/28 02:22:18;;;;;;;22.70;10.40;;;;;;;12.89;86.27;100700.58;109713;1277;22945;-60
2023/09/28 02:24:50;;;;;;;23.90;10.50;;;;;;;12.88;86.47;100694.95;109810;1284;22252;-61
2023/09/28 02:27:22;;;;;;;23.00;10.50;;;;;;;12.86;86.48;100696.40;109832;1283;22231;-61
2023/09/28 02:29:52;;;;;;;24.70;11.10;;;;;;;12.86;86.53;100693.70;109822;1284;22220;-62
2023/09/28 02:32:23;;;;;;;25.40;12.70;;;;;;;12.84;86.76;100699.62;109808;1284;22390;-61
2023/09/28 02:34:54;;;;;;;24.90;11.60;;;;;;;12.81;86.96;100698.75;109822;1284;22939;-60
2023/09/28 02:37:25;;;;;;;24.70;11.30;;;;;;;12.79;87.02;100701.61;109801;1284;22342;-62
2023/09/28 02:39:57;;;;;;;24.80;11.10;;;;;;;12.78;87.13;100699.17;109810;1277;22196;-61
2023/09/28 02:42:28;;;;;;;26.40;11.10;;;;;;;12.79;87.37;100698.31;109810;1274;22385;-61
2023/09/28 02:44:59;;;;;;;26.20;11.10;;;;;;;12.79;87.61;100696.84;109808;1284;22216;-61
2023/09/28 02:47:30;;;;;;;25.80;11.20;;;;;;;12.80;87.71;100698.23;109815;1284;22212;-61
2023/09/28 02:50:01;;;;;;;26.80;11.40;;;;;;;12.81;87.82;100701.50;109797;1280;22197;-61
2023/09/28 02:52:32;;;;;;;22.70;11.40;;;;;;;12.80;87.92;100700.48;109803;1280;22193;-60
2023/09/28 02:55:06;;;;;;;27.20;12.70;;;;;;;12.82;88.08;100698.23;109806;1280;22317;-60
2023/09/28 02:57:37;;;;;;;27.50;12.20;;;;;;;12.82;88.13;100696.63;109775;1277;22264;-60
2023/09/28 03:00:25;;;;;;;25.90;12.50;;;;;;;12.80;88.10;100702.20;109796;1284;22266;-62
2023/09/28 03:02:57;;;;;;;30.10;11.90;;;;;;;12.74;88.20;100702.56;109807;1277;23057;-61
2023/09/28 03:05:29;;;;;;;25.40;11.90;;;;;;;12.70;88.06;100705.13;109785;1284;22944;-61
2023/09/28 03:08:00;;;;;;;22.20;11.30;;;;;;;12.66;88.02;100701.03;109803;1277;22155;-61
2023/09/28 03:10:31;;;;;;;25.90;12.60;;;;;;;12.62;88.26;100698.63;109807;1284;22171;-60
2023/09/28 03:13:03;;;;;;;23.50;10.70;;;;;;;12.59;88.43;100700.14;109803;1284;22135;-60
2023/09/28 03:15:34;;;;;;;27.10;12.10;;;;;;;12.56;88.23;100698.37;109797;1284;23229;-60
2023/09/28 03:18:05;;;;;;;25.40;12.60;;;;;;;12.53;88.25;100703.09;109797;1284;22369;-60
2023/09/28 03:20:36;;;;;;;21.40;10.80;;;;;;;12.49;88.30;100700.27;109807;1283;22132;-59
2023/09/28 03:23:08;;;;;;;25.80;11.90;;;;;;;12.47;88.40;100700.00;109826;1280;22153;-62
2023/09/28 03:25:39;;;;;;;27.50;12.30;;;;;;;12.46;88.42;100701.48;109793;1277;22901;-60
2023/09/28 03:28:10;;;;;;;26.70;12.90;;;;;;;12.43;88.68;100703.30;109770;1284;22288;-62
2023/09/28 03:30:41;;;;;;;30.90;12.90;;;;;;;12.41;88.87;100702.36;109776;1280;22212;-59
2023/09/28 03:33:12;;;;;;;30.90;13.20;;;;;;;12.38;88.91;100707.35;109791;1284;22326;-61
2023/09/28 03:35:43;;;;;;;27.90;13.10;;;;;;;12.36;89.12;100706.02;109802;1284;23118;-60
2023/09/28 03:38:15;;;;;;;28.40;12.70;;;;;;;12.35;89.33;100699.97;109795;1284;22346;-61
2023/09/28 03:40:46;;;;;;;25.90;12.70;;;;;;;12.35;88.97;100697.92;109795;1284;22225;-61
2023/09/28 03:43:17;;;;;;;27.80;13.60;;;;;;;12.32;88.86;100697.05;109802;1284;22178;-60
2023/09/28 03:45:48;;;;;;;30.50;13.40;;;;;;;12.26;89.15;100692.64;109790;1284;22296;-61
2023/09/28 03:48:19;;;;;;;29.40;13.40;;;;;;;12.21;89.01;100691.85;109809;1284;22190;-60
2023/09/28 03:50:50;;;;;;;29.70;13.00;;;;;;;12.17;88.99;100687.59;109805;1284;22251;-62
2023/09/28 03:53:21;;;;;;;24.20;12.40;;;;;;;12.12;88.93;100693.20;109750;1276;22965;-60
2023/09/28 03:55:52;;;;;;;25.10;13.60;;;;;;;12.06;88.88;100693.58;109738;1277;22874;-63
2023/09/28 03:58:23;;;;;;;28.90;12.80;;;;;;;12.01;88.92;100690.08;109785;1277;22943;-61
2023/09/28 04:00:54;;;;;;;26.70;12.10;;;;;;;11.97;89.32;100687.74;109775;1277;22198;-60
2023/09/28 04:03:25;;;;;;;22.50;9.80;;;;;;;11.95;89.38;100688.13;109789;1277;22213;-60
2023/09/28 04:05:55;;;;;;;22.90;10.90;;;;;;;11.93;89.47;100689.91;109766;1267;22255;-61
2023/09/28 04:08:26;;;;;;;20.30;8.80;;;;;;;11.89;89.09;100686.73;109797;1284;23013;-60
2023/09/28 04:10:57;;;;;;;24.80;10.20;;;;;;;11.83;89.13;100689.55;109795;1284;22271;-61
2023/09/28 04:13:28;;;;;;;24.30;9.40;;;;;;;11.78;89.18;100686.45;109836;1283;22225;-61
2023/09/28 04:15:59;;;;;;;23.40;10.10;;;;;;;11.74;89.34;100690.42;109802;1284;22262;-61
2023/09/28 04:18:30;;;;;;;21.30;8.60;;;;;;;11.71;89.20;100694.23;109813;1284;22397;-61
2023/09/28 04:21:01;;;;;;;21.00;7.90;;;;;;;11.66;89.23;100694.65;109821;1280;22151;-61
2023/09/28 04:23:32;;;;;;;24.20;10.20;;;;;;;11.62;88.98;100693.95;109836;1277;23500;-61
2023/09/28 04:26:05;;;;;;;20.40;9.20;;;;;;;11.56;88.88;100690.82;109741;1277;22328;-59
2023/09/28 04:28:36;;;;;;;26.90;9.90;;;;;;;11.51;89.15;100690.45;109772;1284;22333;-61
2023/09/28 04:31:07;;;;;;;22.40;9.20;;;;;;;11.48;89.03;100690.68;109774;1283;22274;-65
2023/09/28 04:33:38;;;;;;;21.30;9.80;;;;;;;11.44;88.77;100692.58;109775;1279;22189;-58
2023/09/28 04:36:09;;;;;;;24.70;10.80;;;;;;;11.38;88.89;100691.08;109730;1276;22258;-60
2023/09/28 04:38:41;;;;;;;19.60;9.10;;;;;;;11.37;88.90;100689.62;109732;1274;22177;-59
2023/09/28 04:41:12;;;;;;;21.50;10.40;;;;;;;11.35;88.95;100690.59;109738;1277;22384;-60
2023/09/28 04:43:43;;;;;;;26.20;11.70;;;;;;;11.34;89.12;100694.08;109736;1273;22245;-59
2023/09/28 04:46:14;;;;;;;23.80;10.30;;;;;;;11.31;89.08;100694.23;109666;1268;22380;-58
2023/09/28 04:48:45;;;;;;;24.60;10.00;;;;;;;11.28;89.10;100698.12;109777;1280;22177;-57
2023/09/28 04:51:16;;;;;;;23.60;11.00;;;;;;;11.27;89.03;100699.77;109732;1277;22335;-58
2023/09/28 04:53:47;;;;;;;22.30;11.10;;;;;;;11.26;89.08;100697.35;109681;1277;22343;-59
2023/09/28 04:56:17;;;;;;;24.30;10.80;;;;;;;11.23;89.15;100698.91;109660;1276;22307;-61
2023/09/28 04:58:48;;;;;;;23.70;11.50;;;;;;;11.22;89.40;100696.43;109782;1280;22317;-60
2023/09/28 05:01:20;;;;;;;23.00;11.10;;;;;;;11.19;89.45;100699.73;109751;1277;22176;-59
2023/09/28 05:03:53;;;;;;;25.50;12.10;;;;;;;11.18;89.57;100701.73;109753;1276;22250;-59
2023/09/28 05:06:23;;;;;;;24.20;11.90;;;;;;;11.16;89.66;100704.21;109704;1277;22439;-61
2023/09/28 05:08:54;;;;;;;29.10;13.10;;;;;;;11.16;89.97;100705.66;109790;1280;22225;-59
2023/09/28 05:11:25;;;;;;;23.30;11.50;;;;;;;11.14;90.02;100697.99;109789;1277;22329;-60
2023/09/28 05:13:56;;;;;;;26.80;12.30;;;;;;;11.15;89.93;100695.88;109781;1277;22420;-60
2023/09/28 05:16:27;;;;;;;25.80;12.50;;;;;;;11.16;89.95;100697.33;109702;1277;22160;-60
2023/09/28 05:18:58;;;;;;;28.90;13.50;;;;;;;11.17;90.03;100697.80;109685;1277;22362;-60
2023/09/28 05:21:29;;;;;;;26.40;12.40;;;;;;;11.18;90.35;100697.17;109711;1278;22196;-60
2023/09/28 05:24:00;;;;;;;33.80;13.70;;;;;;;11.22;90.35;100702.83;109752;1280;22449;-60
2023/09/28 05:26:32;;;;;;;30.50;15.10;;;;;;;11.25;90.78;100702.88;109807;1283;23363;-61
2023/09/28 05:29:02;;;;;;;32.50;14.90;;;;;;;11.30;91.37;100705.07;109851;1283;22179;-60
2023/09/28 05:31:34;;;;;;;32.80;15.00;;;;;;;11.35;91.81;100708.48;109769;1284;22230;-61
2023/09/28 05:34:05;;;;;;;31.20;17.10;;;;;;;11.41;92.24;100707.09;109793;1284;22329;-61
2023/09/28 05:36:36;;;;;;;35.20;16.50;;;;;;;11.46;92.42;100710.01;109760;1280;22153;-61
2023/09/28 05:39:08;;;;;;;35.10;16.30;;;;;;;11.51;92.65;100711.79;109811;1284;22156;-59
2023/09/28 05:41:39;;;;;;;40.90;17.60;;;;;;;11.56;92.74;100714.24;109795;1280;22205;-60
2023/09/28 05:44:10;;;;;;;32.10;16.50;;;;;;;11.63;93.01;100712.22;109792;1277;22333;-59
2023/09/28 05:46:41;;;;;;;36.30;17.30;;;;;;;11.69;93.52;100708.52;109801;1284;23072;-59
2023/09/28 05:49:13;;;;;;;37.40;16.90;;;;;;;11.76;94.16;100711.64;109800;1277;22189;-60
2023/09/28 05:51:44;;;;;;;35.90;18.50;;;;;;;11.83;94.62;100705.98;109815;1280;22184;-61
2023/09/28 05:54:15;;;;;;;34.80;17.30;;;;;;;11.89;94.68;100707.23;109803;1284;22354;-58
2023/09/28 05:56:46;;;;;;;35.70;18.10;;;;;;;11.96;95.06;100706.98;109786;1280;23003;-61
2023/09/28 05:59:17;;;;;;;38.10;18.30;;;;;;;12.03;95.28;100705.59;109799;1284;22201;-60
2023/09/28 06:01:48;;;;;;;37.60;19.30;;;;;;;12.09;95.46;100703.89;109821;1268;22142;-61
2023/09/28 06:04:19;;;;;;;37.00;17.50;;;;;;;12.17;95.77;100705.50;109818;1274;22184;-60
2023/09/28 06:06:51;;;;;;;40.40;19.20;;;;;;;12.23;95.89;100706.04;109787;1280;22674;-58
2023/09/28 06:09:22;;;;;;;43.40;18.50;;;;;;;12.31;96.39;100708.21;109817;1284;22172;-61
2023/09/28 06:11:57;;;;;;;36.30;19.00;;;;;;;12.38;96.70;100709.42;109818;1284;22147;-60
2023/09/28 06:14:28;;;;;;;35.60;18.80;;;;;;;12.46;96.94;100708.91;109805;1284;22655;-61
2023/09/28 06:16:59;;;;;;;37.20;19.90;;;;;;;12.53;97.02;100710.78;109806;1284;22184;-60
2023/09/28 06:19:31;;;;;;;38.90;19.90;;;;;;;12.60;97.24;100703.17;109798;1284;23297;-61
2023/09/28 06:22:03;;;;;;;37.10;19.80;;;;;;;12.67;97.39;100706.57;109761;1273;23078;-61
2023/09/28 06:24:34;;;;;;;40.20;20.60;;;;;;;12.76;97.88;100710.44;109798;1279;22637;-59
2023/09/28 06:27:06;;;;;;;44.00;20.60;;;;;;;12.84;98.16;100714.95;109784;1280;22201;-60
2023/09/28 06:29:36;;;;;;;39.40;18.70;;;;;;;12.91;98.29;100715.90;109801;1284;22168;-60
2023/09/28 06:32:08;;;;;;;35.70;19.50;;;;;;;12.97;97.78;100714.27;109814;1284;22161;-60
2023/09/28 06:34:38;;;;;;;40.90;19.40;;;;;;;13.04;97.79;100716.33;109827;1280;22157;-60
2023/09/28 06:37:09;;;;;;;41.50;20.70;;;;;;;13.10;97.52;100717.11;109789;1284;23194;-60
2023/09/28 06:39:40;;;;;;;34.00;18.60;;;;;;;13.16;97.51;100715.05;109806;1280;23481;-62
2023/09/28 06:42:11;;;;;;;34.40;18.60;;;;;;;13.23;97.88;100719.14;109786;1284;23057;-59
2023/09/28 06:44:42;;;;;;;33.40;18.20;;;;;;;13.30;98.45;100717.78;109830;1280;22164;-61
2023/09/28 06:47:13;;;;;;;38.20;19.50;;;;;;;13.38;98.77;100718.33;109786;1284;22150;-61
2023/09/28 06:49:45;;;;;;;39.20;19.30;;;;;;;13.48;99.22;100716.17;109820;1280;22256;-61
2023/09/28 06:52:15;;;;;;;31.70;17.10;;;;;;;13.57;99.38;100719.83;109794;1280;22162;-61
2023/09/28 06:54:47;;;;;;;33.90;19.50;;;;;;;13.67;99.52;100719.31;109796;1278;22141;-62
2023/09/28 06:57:19;;;;;;;34.30;17.10;;;;;;;13.78;99.69;100729.71;109781;1277;22164;-62
2023/09/28 06:59:50;;;;;;;38.10;18.00;;;;;;;13.89;99.50;100733.38;109808;1284;22138;-60
2023/09/28 07:02:21;;;;;;;29.10;15.30;;;;;;;13.99;99.52;100730.44;109793;1284;22940;-62
2023/09/28 07:04:52;;;;;;;30.30;15.50;;;;;;;14.08;99.36;100732.05;109797;1284;22165;-61
2023/09/28 07:07:24;;;;;;;35.70;16.30;;;;;;;14.18;99.26;100732.36;109765;1284;22679;-61
2023/09/28 07:09:55;;;;;;;30.60;16.80;;;;;;;14.26;99.46;100733.60;109798;1284;22195;-61
2023/09/28 07:12:26;;;;;;;26.70;13.30;;;;;;;14.37;99.30;100738.70;109803;1284;22169;-61
2023/09/28 07:14:58;;;;;;;30.40;14.70;;;;;;;14.46;99.23;100734.36;109821;1284;22268;-61
2023/09/28 07:17:28;;;;;;;30.00;13.80;;;;;;;14.56;99.16;100736.32;109768;1277;22139;-60
2023/09/28 07:20:00;;;;;;;28.30;13.70;;;;;;;14.66;99.12;100732.06;109773;1279;22361;-59
2023/09/28 07:22:31;;;;;;;30.10;12.90;;;;;;;14.76;98.78;100731.05;107046;1276;24781;-58
2023/09/28 07:25:03;;;;;;;25.60;13.00;;;;;;;14.87;98.74;100732.48;105433;1276;22533;-59
2023/09/28 07:27:34;;;;;;;24.50;13.10;;;;;;;15.00;98.53;100732.70;105665;1283;25383;-58
2023/09/28 07:30:06;;;;;;;28.60;11.60;;;;;;;15.12;98.45;100727.90;105570;1284;25364;-58
2023/09/28 07:32:38;;;;;;;24.40;11.50;;;;;;;15.21;98.12;100730.34;109791;1284;22244;-59
2023/09/28 07:35:10;;;;;;;24.40;11.50;;;;;;;15.29;97.80;100729.73;109782;1284;22172;-59
2023/09/28 07:37:43;;;;;;;23.70;12.10;;;;;;;15.40;97.73;100728.90;109792;1284;22148;-58
2023/09/28 07:40:17;;;;;;;24.10;10.50;;;;;;;15.50;97.60;100734.97;109800;1277;22375;-59
2023/09/28 07:42:48;;;;;;;24.60;10.60;;;;;;;15.64;97.47;100733.79;109683;1277;22179;-60
2023/09/28 07:45:20;;;;;;;24.00;10.60;;;;;;;15.74;97.09;100737.73;109801;1284;22183;-59
2023/09/28 07:47:51;;;;;;;26.80;10.10;;;;;;;15.83;96.82;100739.17;109819;1284;23032;-59
2023/09/28 07:50:22;;;;;;;23.60;9.80;;;;;;;15.92;96.65;100738.54;109799;1277;22240;-59
2023/09/28 07:52:53;;;;;;;25.00;10.90;;;;;;;16.02;96.59;100741.31;109784;1284;22364;-59
2023/09/28 07:55:24;;;;;;;25.10;11.50;;;;;;;16.13;96.42;100740.09;109798;1277;22177;-60
2023/09/28 07:57:55;;;;;;;23.40;9.60;;;;;;;16.26;96.34;100741.27;109805;1284;22200;-59
2023/09/28 08:00:27;;;;;;;23.50;8.80;;;;;;;16.37;95.91;100740.74;109810;1273;22195;-58
2023/09/28 08:02:58;;;;;;;18.70;8.80;;;;;;;16.46;95.76;100744.77;109786;1284;22142;-59
2023/09/28 08:05:31;;;;;;;20.10;8.90;;;;;;;16.60;95.40;100744.43;109768;1278;22938;-59
2023/09/28 08:08:02;;;;;;;21.40;8.60;;;;;;;16.71;94.99;100745.90;109787;1277;22411;-60
2023/09/28 08:10:33;;;;;;;22.30;8.50;;;;;;;16.83;94.79;100746.33;109806;1283;22160;-60
2023/09/28 08:13:05;;;;;;;25.50;8.90;;;;;;;16.97;94.48;100744.65;109813;1284;22153;-61
2023/09/28 08:15:37;;;;;;;17.30;7.70;;;;;;;17.10;94.03;100742.96;109780;1283;23005;-60
2023/09/28 08:18:09;;;;;;;17.60;7.80;;;;;;;17.20;93.96;100744.70;108574;1284;25412;-59
2023/09/28 08:20:47;;;;;;;26.40;8.10;;;;;;;17.30;93.80;100742.87;105667;1284;25312;-61
2023/09/28 08:23:18;;;;;;;17.00;7.10;;;;;;;17.38;93.12;100742.45;105540;1283;23021;-60
2023/09/28 08:25:49;;;;;;;19.00;8.60;;;;;;;17.46;92.79;100738.48;105654;1278;22537;-61
2023/09/28 08:28:21;;;;;;;16.70;6.30;;;;;;;17.53;92.77;100743.95;105563;1278;24119;-60
2023/09/28 08:30:54;;;;;;;17.50;6.20;;;;;;;17.63;92.40;100746.19;105703;1282;22628;-60
2023/09/28 08:33:25;;;;;;;14.00;4.90;;;;;;;17.67;91.40;100745.63;109798;1284;22181;-61
2023/09/28 08:35:55;;;;;;;15.70;6.00;;;;;;;17.76;91.21;100744.16;109794;1284;22950;-61
2023/09/28 08:38:26;;;;;;;14.70;4.80;;;;;;;17.89;90.73;100745.64;109790;1278;22189;-61
2023/09/28 08:41:00;;;;;;;16.50;5.80;;;;;;;17.99;89.76;100747.23;109783;1277;22176;-61
2023/09/28 08:43:39;;;;;;;17.90;6.00;;;;;;;18.09;89.37;100743.45;109786;1276;22170;-61
2023/09/28 08:46:14;;;;;;;15.40;5.00;;;;;;;18.20;88.96;100743.61;109689;1284;23309;-61
2023/09/28 08:48:46;;;;;;;14.90;5.20;;;;;;;18.29;88.62;100744.41;109790;1284;22185;-62
2023/09/28 08:51:18;;;;;;;16.50;5.40;;;;;;;18.36;88.41;100743.18;109769;1284;22896;-62
2023/09/28 08:53:50;;;;;;;13.30;5.20;;;;;;;18.43;87.98;100745.96;106786;1283;22590;-61
2023/09/28 08:56:22;;;;;;;15.60;4.90;;;;;;;18.48;87.69;100749.12;109777;1283;22186;-60
2023/09/28 08:58:53;;;;;;;12.10;4.30;;;;;;;18.59;87.17;100750.61;109786;1284;22186;-60
2023/09/28 09:01:25;;;;;;;12.20;4.30;;;;;;;18.69;86.68;100747.83;109764;1273;22172;-61
2023/09/28 09:03:57;;;;;;;17.00;5.20;;;;;;;18.82;85.94;100745.89;109795;1284;23083;-61
2023/09/28 09:06:31;;;;;;;14.90;4.40;;;;;;;18.95;85.74;100740.75;109788;1284;23310;-60
2023/09/28 09:09:05;;;;;;;13.20;4.70;;;;;;;19.05;85.32;100740.27;109793;1284;22158;-61
2023/09/28 09:11:37;;;;;;;15.10;5.40;;;;;;;19.09;84.83;100740.04;109755;1284;23144;-61
2023/09/28 09:14:08;;;;;;;14.30;4.60;;;;;;;19.15;84.68;100741.54;109800;1284;23060;-60
2023/09/28 09:16:39;;;;;;;16.10;4.70;;;;;;;19.24;84.49;100742.99;109748;1284;23027;-62
2023/09/28 09:19:15;;;;;;;13.30;3.70;;;;;;;19.38;84.22;100737.92;109794;1284;22135;-61
2023/09/28 09:21:46;;;;;;;12.80;3.90;;;;;;;19.48;83.72;100738.97;109789;1280;22203;-59
2023/09/28 09:24:18;;;;;;;20.90;4.60;;;;;;;19.57;82.66;100737.80;109789;1276;23030;-64
2023/09/28 09:26:52;;;;;;;14.20;4.40;;;;;;;19.73;82.23;100732.13;109783;1277;22204;-62
2023/09/28 09:29:23;;;;;;;13.60;2.80;;;;;;;19.87;81.57;100735.26;109744;1284;22172;-62
2023/09/28 09:31:55;;;;;;;12.40;3.20;;;;;;;20.02;81.22;100729.89;109804;1280;22172;-63
2023/09/28 09:34:26;;;;;;;14.90;3.40;;;;;;;20.10;80.79;100726.91;109790;1282;22169;-63
2023/09/28 09:37:00;;;;;;;14.20;3.70;;;;;;;20.23;80.45;100729.52;109804;1283;22197;-63
2023/09/28 09:39:32;;;;;;;10.70;3.50;;;;;;;20.32;79.60;100729.09;109809;1276;22264;-62
2023/09/28 09:42:04;;;;;;;15.60;3.60;;;;;;;20.38;79.05;100726.02;109804;1284;22283;-63
2023/09/28 09:44:35;;;;;;;13.50;3.60;;;;;;;20.47;78.62;100726.11;109813;1277;22345;-61
2023/09/28 09:47:06;;;;;;;12.00;3.50;;;;;;;20.51;78.02;100722.80;109816;1284;22160;-61
2023/09/28 09:49:39;;;;;;;10.80;3.20;;;;;;;20.56;77.68;100725.14;109817;1283;22751;-61
2023/09/28 09:52:10;;;;;;;16.00;2.90;;;;;;;20.67;77.03;100714.98;109799;1280;22131;-61
2023/09/28 09:54:43;;;;;;;14.30;2.60;;;;;;;20.81;76.85;100719.58;109781;1284;23039;-62
2023/09/28 09:57:17;;;;;;;14.00;2.80;;;;;;;20.94;75.74;100721.02;109780;1277;22142;-62
2023/09/28 09:59:49;;;;;;;13.90;3.00;;;;;;;21.06;75.59;100721.58;109803;1284;22155;-62
2023/09/28 10:02:26;;;;;;;12.90;3.00;;;;;;;21.16;75.38;100720.75;109768;1284;23125;-60
2023/09/28 10:04:59;;;;;;;10.90;3.20;;;;;;;21.26;75.07;100719.09;109802;1283;22168;-61
2023/09/28 10:07:34;;;;;;;19.30;3.20;;;;;;;21.34;74.73;100716.99;105660;1276;5398191;-60
2023/09/28 10:10:06;;;;;;;12.10;2.70;;;;;;;21.44;73.41;100720.41;109796;1276;22356;-60
2023/09/28 10:12:38;;;;;;;10.30;2.20;;;;;;;21.53;73.22;100721.39;109770;1277;22212;-59
2023/09/28 10:15:13;;;;;;;9.00;2.30;;;;;;;21.55;72.31;100715.67;109805;1284;22177;-60
2023/09/28 10:17:45;;;;;;;11.30;3.00;;;;;;;21.58;72.19;100716.66;109800;1277;23252;-60
2023/09/28 10:20:18;;;;;;;12.00;2.70;;;;;;;21.63;71.43;100715.93;109837;1281;22149;-60
2023/09/28 10:22:50;;;;;;;12.50;2.30;;;;;;;21.66;70.87;100717.16;109829;1273;22251;-60
2023/09/28 10:25:22;;;;;;;14.50;3.10;;;;;;;21.77;70.15;100718.31;109850;1277;22324;-60
2023/09/28 10:27:59;;;;;;;9.40;2.20;;;;;;;21.86;69.53;100720.04;109827;1280;22122;-60
2023/09/28 10:30:30;;;;;;;8.40;2.20;;;;;;;21.92;69.26;100717.54;109839;1283;22163;-58
2023/09/28 10:33:12;;;;;;;11.30;2.60;;;;;;;21.97;68.66;100715.15;109811;1284;22996;-60
2023/09/28 10:36:11;;;;;;;10.30;1.80;;;;;;;22.03;67.50;100707.27;109707;1284;23081;-60
2023/09/28 10:38:42;;;;;;;8.60;2.20;;;;;;;22.11;67.40;100701.65;109812;1284;22165;-60
2023/09/28 10:41:14;;;;;;;9.30;2.20;;;;;;;22.16;66.76;100701.57;109835;1284;22113;-59
2023/09/28 10:43:45;;;;;;;9.50;2.40;;;;;;;22.23;66.02;100699.35;109871;1281;22180;-60
2023/09/28 10:46:17;;;;;;;8.50;2.00;;;;;;;22.33;64.79;100697.38;109839;1283;23142;-59
2023/09/28 10:48:48;;;;;;;10.50;1.80;;;;;;;22.39;64.53;100692.23;109864;1283;22149;-60
2023/09/28 10:51:19;;;;;;;11.60;2.00;;;;;;;22.49;63.98;100687.46;109844;1284;22322;-61
2023/09/28 10:53:50;;;;;;;11.40;2.30;;;;;;;22.56;63.61;100687.27;109846;1284;22148;-60
2023/09/28 10:56:22;;;;;;;11.00;3.40;;;;;;;22.61;63.45;100689.66;109824;1280;22269;-60
2023/09/28 10:58:56;;;;;;;11.70;2.10;;;;;;;22.65;62.77;100685.16;109871;1283;22242;-60
2023/09/28 11:01:27;;;;;;;12.70;2.20;;;;;;;22.73;62.78;100686.31;109836;1284;22196;-60
2023/09/28 11:03:58;;;;;;;11.50;2.70;;;;;;;22.79;62.53;100687.79;109851;1284;22237;-60
2023/09/28 11:06:30;;;;;;;11.80;2.30;;;;;;;22.89;62.16;100688.26;109840;1284;22697;-60
2023/09/28 11:09:03;;;;;;;16.10;2.60;;;;;;;22.95;61.45;100689.60;109838;1277;22135;-60
2023/09/28 11:11:34;;;;;;;8.90;2.40;;;;;;;23.04;61.20;100689.80;109826;1284;22206;-60
2023/09/28 11:14:06;;;;;;;9.40;1.80;;;;;;;23.12;61.22;100690.90;109804;1280;22166;-60
2023/09/28 11:16:39;;;;;;;8.30;2.00;;;;;;;23.15;61.01;100683.83;109820;1284;22195;-60
2023/09/28 11:19:11;;;;;;;9.10;1.80;;;;;;;23.18;60.57;100684.73;109804;1284;22195;-60
2023/09/28 11:21:43;;;;;;;9.80;2.30;;;;;;;23.24;60.31;100680.65;109812;1284;22150;-60
2023/09/28 11:24:14;;;;;;;9.70;2.20;;;;;;;23.26;59.72;100680.23;109826;1277;22155;-60